Airfield :







YOU CAN JOIN US ON...

 
LOGIN :

Register | Disclaimer

   EN    FR    IT 

 









Legend :    VFR   Marginal VFR   IFR   Intensive IFR   Very Intensive IFR
Visi :
Ceiling :
>= 8 km
>= 3000ft
5 to 8 km
1000 to 3000 ft
1500m to 5 km
500 to 1000 ft
800 to 1500m
200 to 500 ft
< 800m
< 200 ft
Symbols :   Thunderstorms  Fog  Heavy snow  Heavy precipitations  Wind > 20 kt






- Airport Elevation : 39 ft
- IATA code : YNA


CYNA - Natashquan

CURRENT METAR :
  • 270100Z AUTO 00000KT 9SM SCT070 11/10 A3001 RMK SLP164

EXPIRED METARs :
  • 270000Z AUTO 29005KT 9SM FEW065 14/11 A2998 RMK SLP153
  • 262300Z AUTO 28014G23KT 9SM BKN065 BKN080 16/12 A2995 RMK SLP145 DENSITY ALT 100FT

TAF TAF CYNA
Valid from the 26 at 20:00 until the 27 at 08:00 UTC


261942Z 2620/2708 29017G27KT P6SM SCT030 BKN240
BECMG 2620/2622 26012KT
FM262300 36008KT P6SM BKN240 RMK FCST BASED ON AUTO OBS. NXT FCST BY 270200Z
CZUL FIR / North America



MET'MAP, your aeronautical weather chart ! - Copyright ORBIFLY December 2007 - Disclaimer

ORBIFLY MET'MAP TEAM :

Programming & Development : Alexandra Zaïnal
Concept & original design : Baudouin d'Aumeries
Assistance for programming : Marc-Olivier Méhu
Technical & hardware support : Manuel Goepfert

Contact : metmap@orbifly.com




SOURCES & CREDITS :

   NOAA